Aérodrome :
LOGIN :

S'inscrire | Disclaimer

   EN    FR    IT 

 










Légende :    VFR   VFR Marginal   IFR   IFR Intensif   IFR Très Intensif
Visi : 
Plafond : 
>= 8 km
>= 3000ft
5 à 8 km
1000 à 3000 ft
1500m à 5 km
500 à 1000 ft
800 à 1500m
200 à 500 ft
< 800m
< 200 ft
Symboles :   Orages  Brouillard  Fortes neiges  Fortes précipitations  Vent > 20 kt
SIGMETs :   Divers  Orages  Givrage  Turbulence  Onde Orograph.  Cendres Volcan.






- Altitude de l'aérodrome : 308 ft
- Code IATA : POZ


EPPO - Poznan-Lawica

DERNIER METAR :
  • 211930Z 10012KT 6000 -RA BKN005 09/08 Q1012

METARs EXPIRÉS :
  • 211900Z 11015KT 7000 -RA BKN006 09/08 Q1012
  • 211830Z 10014KT 6000 -RA BKN005 09/08 Q1012
  • 211800Z 11012KT 6000 -RA BKN005 09/09 Q1011
  • 211730Z 15008KT 6000 -RA BKN007 10/09 Q1012
  • 211700Z 11012KT 8000 -RA BKN007 10/09 Q1011

TAF TAF EPPO
Valide du 21 à 18h jusqu'au 22 à 18h UTC


211730Z 2118/2218 12010KT 8000 BKN010
TEMPO 2118/2124 4000 RA BR BKN006
BECMG 2205/2207 CAVOK



MET'MAP, la Météo Aéronautique d'un coup d'oeil ! - Copyright ORBIFLY Décembre 2007 - Disclaimer

ORBIFLY MET'MAP TEAM :

Programmation & Développement : Alexandra Zaïnal
Conception & Développement : Baudouin d'Aumeries
Co-Programmation & Développement : Marc-Olivier Méhu
Soutien technique & logistique : Manuel Goepfert

Contact : metmap@orbifly.com




SOURCES & CREDITS :

   NOAA